Time;durP1;ratioP1;P1;durP2;ratioP2;P2;SDS_P1;SDS_P2;PMS_P1;PMS_P2;Temp;Humidity;BMP_temperature;BMP_pressure;BME280_temperature;BME280_humidity;BME280_pressure;Samples;Min_cycle;Max_cycle;Signal;HPM_P1;HPM_P2
2023/06/09 04:01:30;;;;;;;6.25;4.10;;;;;;;19.88;100.00;100133.66;5606516;31;76667;-58
2023/06/09 04:04:34;;;;;;;5.62;4.47;;;;;;;19.88;100.00;100133.66;5583899;32;33456;-58
2023/06/09 04:07:38;;;;;;;5.62;4.68;;;;;;;19.37;100.00;100138.03;5583813;31;33407;-58
2023/06/09 04:10:41;;;;;;;7.87;4.60;;;;;;;19.41;100.00;100139.72;5583730;31;33379;-58
2023/06/09 04:13:43;;;;;;;5.90;4.70;;;;;;;19.44;100.00;100149.13;5583744;32;33545;-59
2023/06/09 04:16:46;;;;;;;6.18;4.55;;;;;;;19.45;100.00;100150.69;5583500;31;34367;-58
2023/06/09 04:19:51;;;;;;;5.22;4.65;;;;;;;19.44;100.00;100160.00;5594010;31;33121;-58
2023/06/09 04:22:54;;;;;;;7.87;5.25;;;;;;;19.53;100.00;100162.56;5603057;31;34328;-58
2023/06/09 04:25:56;;;;;;;7.18;5.80;;;;;;;19.66;100.00;100158.69;5603512;31;33485;-58
2023/06/09 04:29:00;;;;;;;7.82;6.90;;;;;;;19.71;100.00;100158.44;5602951;31;33172;-58
2023/06/09 04:32:07;;;;;;;8.88;7.82;;;;;;;19.77;100.00;100159.78;5603244;31;33578;-59
2023/06/09 04:35:10;;;;;;;13.90;8.25;;;;;;;19.68;100.00;100162.66;5599560;31;34398;-57
2023/06/09 04:38:12;;;;;;;12.90;8.63;;;;;;;19.73;100.00;100169.75;5583261;31;33441;-57
2023/06/09 04:41:17;;;;;;;9.25;8.32;;;;;;;19.65;100.00;100185.09;5583462;31;33676;-57
2023/06/09 04:44:20;;;;;;;14.40;9.80;;;;;;;19.69;100.00;100194.13;5583393;32;33713;-57
2023/06/09 04:47:24;;;;;;;12.57;9.88;;;;;;;19.68;100.00;100194.50;5583268;32;33691;-56
2023/06/09 04:50:32;;;;;;;15.55;11.20;;;;;;;19.67;100.00;100188.28;5582362;31;33336;-56
2023/06/09 04:53:35;;;;;;;14.13;11.15;;;;;;;19.70;100.00;100193.03;5563632;32;33567;-57
2023/06/09 04:56:38;;;;;;;12.50;11.30;;;;;;;19.77;100.00;100191.59;5563788;32;33717;-57
2023/06/09 04:59:41;;;;;;;13.70;12.35;;;;;;;19.76;100.00;100190.81;5563297;32;34353;-57
2023/06/09 05:02:44;;;;;;;12.90;11.55;;;;;;;19.73;100.00;100198.88;5560947;32;33628;-57
2023/06/09 05:05:47;;;;;;;18.62;12.35;;;;;;;19.84;100.00;100195.34;5562716;32;33566;-56
2023/06/09 05:08:51;;;;;;;15.43;13.02;;;;;;;19.87;100.00;100197.38;5563510;32;33180;-57
2023/06/09 05:11:53;;;;;;;14.57;13.18;;;;;;;19.85;100.00;100193.41;5554672;32;33618;-57
2023/06/09 05:14:56;;;;;;;14.90;13.40;;;;;;;19.86;100.00;100192.25;5553973;32;33852;-57
2023/06/09 05:17:58;;;;;;;15.13;13.57;;;;;;;19.94;100.00;100197.56;5569156;32;33821;-57
2023/06/09 05:21:01;;;;;;;16.98;13.77;;;;;;;19.99;100.00;100198.44;5569389;32;33590;-56
2023/06/09 05:24:04;;;;;;;19.87;13.55;;;;;;;20.00;100.00;100205.44;5569086;32;33693;-57
2023/06/09 05:27:07;;;;;;;15.63;13.43;;;;;;;20.05;100.00;100205.22;5550279;32;33549;-56
2023/06/09 05:30:10;;;;;;;17.73;13.95;;;;;;;19.95;100.00;100204.56;5550255;32;33514;-56
2023/06/09 05:33:13;;;;;;;15.65;13.93;;;;;;;19.93;100.00;100204.13;5549021;32;33331;-57
2023/06/09 05:36:15;;;;;;;16.60;14.60;;;;;;;20.00;100.00;100203.53;5566930;32;34172;-57
2023/06/09 05:39:18;;;;;;;13.85;12.48;;;;;;;19.97;100.00;100201.50;5569305;32;33254;-57
2023/06/09 05:42:20;;;;;;;12.40;11.20;;;;;;;20.04;100.00;100203.63;5569632;32;33730;-57
2023/06/09 05:45:22;;;;;;;18.08;13.35;;;;;;;20.05;100.00;100208.72;5557931;32;33490;-56
2023/06/09 05:48:25;;;;;;;13.85;12.35;;;;;;;20.04;100.00;100207.16;5548531;32;34284;-56
2023/06/09 05:51:27;;;;;;;16.73;12.50;;;;;;;19.96;100.00;100208.06;5549775;32;33688;-56
2023/06/09 05:54:30;;;;;;;13.98;12.25;;;;;;;20.04;100.00;100206.34;5549371;32;33610;-57
2023/06/09 05:57:32;;;;;;;16.33;13.00;;;;;;;20.04;100.00;100206.34;5547904;32;34340;-56
2023/06/09 06:00:36;;;;;;;14.45;13.05;;;;;;;20.00;100.00;100200.00;5560305;32;33688;-57
2023/06/09 06:03:41;;;;;;;14.02;12.30;;;;;;;20.05;100.00;100195.09;5567484;32;33584;-57
2023/06/09 06:06:44;;;;;;;16.60;13.40;;;;;;;20.01;100.00;100196.16;5569155;32;33753;-56
2023/06/09 06:09:46;;;;;;;13.68;11.88;;;;;;;19.95;100.00;100193.69;5567190;32;33751;-58
2023/06/09 06:12:48;;;;;;;15.32;13.15;;;;;;;19.98;100.00;100197.66;5568178;32;33798;-55
2023/06/09 06:15:51;;;;;;;16.12;12.45;;;;;;;19.96;100.00;100216.22;5564812;32;32318;-56
2023/06/09 06:18:54;;;;;;;14.10;12.00;;;;;;;20.03;100.00;100224.59;5568788;32;33682;-56
2023/06/09 06:21:56;;;;;;;12.82;11.27;;;;;;;20.07;100.00;100230.16;5568012;32;33702;-56
2023/06/09 06:24:58;;;;;;;15.13;11.93;;;;;;;19.99;100.00;100223.72;5567967;32;33762;-57
2023/06/09 06:28:02;;;;;;;13.90;11.80;;;;;;;20.09;100.00;100219.69;5567180;32;33576;-57
2023/06/09 06:31:04;;;;;;;14.07;12.20;;;;;;;20.03;100.00;100227.31;5567652;32;34355;-56
2023/06/09 06:34:07;;;;;;;11.50;10.10;;;;;;;20.01;100.00;100229.59;5558762;32;34317;-56
2023/06/09 06:37:09;;;;;;;11.15;9.05;;;;;;;20.00;100.00;100240.81;5562440;32;33706;-56
2023/06/09 06:40:13;;;;;;;9.32;8.23;;;;;;;20.06;100.00;100236.72;5567135;32;34294;-56
2023/06/09 06:43:15;;;;;;;8.95;7.72;;;;;;;20.03;100.00;100243.63;5566891;32;33547;-56
2023/06/09 06:46:18;;;;;;;10.48;7.97;;;;;;;20.03;100.00;100242.84;5567275;31;31662;-56
2023/06/09 06:49:21;;;;;;;9.30;7.53;;;;;;;20.03;100.00;100242.84;5566122;32;34106;-56
2023/06/09 06:52:23;;;;;;;9.45;7.03;;;;;;;20.00;100.00;100247.06;5560045;32;33778;-56
2023/06/09 06:55:25;;;;;;;10.50;8.23;;;;;;;20.05;100.00;100246.81;5567244;32;34141;-58
2023/06/09 06:58:32;;;;;;;11.40;8.23;;;;;;;20.00;99.71;100251.69;5562480;32;33491;-58
2023/06/09 07:01:35;;;;;;;11.55;7.62;;;;;;;19.95;100.00;100250.03;5566311;32;33578;-58
2023/06/09 07:04:38;;;;;;;8.95;7.12;;;;;;;19.91;100.00;100257.31;5566215;32;33658;-58
2023/06/09 07:07:40;;;;;;;13.75;8.02;;;;;;;19.85;100.00;100262.19;5560215;32;34302;-58
2023/06/09 07:10:42;;;;;;;11.50;6.15;;;;;;;19.87;100.00;100250.97;5565778;32;33743;-58
2023/06/09 07:13:45;;;;;;;6.90;4.78;;;;;;;19.86;100.00;100257.53;5568071;32;33740;-58
2023/06/09 07:16:47;;;;;;;6.40;4.25;;;;;;;19.79;100.00;100255.41;5567675;32;34244;-58
2023/06/09 07:19:49;;;;;;;6.12;4.32;;;;;;;19.80;100.00;100256.19;5568164;32;34292;-58
2023/06/09 07:22:52;;;;;;;5.28;3.97;;;;;;;19.67;100.00;100256.25;5566825;32;33565;-58
2023/06/09 07:25:55;;;;;;;6.20;4.68;;;;;;;19.74;99.55;100254.88;5566249;32;33578;-58
2023/06/09 07:28:58;;;;;;;6.05;4.37;;;;;;;19.68;100.00;100255.09;5568095;32;33837;-58
2023/06/09 07:32:03;;;;;;;8.05;4.28;;;;;;;19.64;100.00;100240.63;5566316;32;34273;-58
2023/06/09 07:35:06;;;;;;;;;;;;;;;19.59;100.00;100234.59;5561776;32;33549;-57
2023/06/09 07:38:09;;;;;;;7.65;4.47;;;;;;;19.51;100.00;100240.97;5563161;32;33510;-57
2023/06/09 07:41:13;;;;;;;6.22;4.25;;;;;;;19.52;99.35;100235.19;5564380;32;34386;-58
2023/06/09 07:44:15;;;;;;;5.70;4.07;;;;;;;19.48;98.68;100229.63;5564645;32;33745;-57
2023/06/09 07:47:18;;;;;;;5.62;4.07;;;;;;;19.39;100.00;100230.91;5549321;32;33921;-57
2023/06/09 07:50:21;;;;;;;4.65;3.50;;;;;;;19.39;98.70;100231.69;5564743;32;33612;-58
2023/06/09 07:53:23;;;;;;;4.55;3.47;;;;;;;19.47;97.10;100222.63;5565302;32;34104;-57
2023/06/09 07:56:26;;;;;;;6.20;3.92;;;;;;;19.31;98.09;100216.31;5564135;32;33678;-57
2023/06/09 07:59:28;;;;;;;7.32;3.72;;;;;;;19.38;100.00;100218.47;5562460;32;33098;-57
2023/06/09 08:02:32;;;;;;;6.35;4.10;;;;;;;19.54;98.13;100219.31;5562556;32;34045;-58
2023/06/09 08:05:35;;;;;;;7.07;4.18;;;;;;;19.41;97.63;100213.13;5567666;32;33639;-56
2023/06/09 08:08:38;;;;;;;6.80;4.05;;;;;;;19.52;99.02;100218.88;5567524;32;33627;-56
2023/06/09 08:11:40;;;;;;;5.00;4.20;;;;;;;19.47;98.57;100222.63;5567614;32;34092;-55
2023/06/09 08:14:42;;;;;;;6.15;4.20;;;;;;;19.52;99.71;100226.22;5567444;32;33721;-56
2023/06/09 08:17:45;;;;;;;5.87;4.10;;;;;;;19.51;100.00;100222.72;5566499;32;33308;-54
2023/06/09 08:20:48;;;;;;;7.15;4.97;;;;;;;19.46;98.22;100220.25;5562841;32;33596;-56
2023/06/09 08:23:52;;;;;;;5.70;4.53;;;;;;;19.50;100.00;100226.56;5557672;32;33574;-55
2023/06/09 08:26:56;;;;;;;5.62;4.37;;;;;;;19.54;100.00;100232.91;5560739;32;33599;-54
2023/06/09 08:29:59;;;;;;;5.65;4.70;;;;;;;19.65;100.00;100233.25;5565388;32;33601;-55
2023/06/09 08:33:01;;;;;;;8.48;5.15;;;;;;;19.68;100.00;100238.00;5563707;32;34267;-56
2023/06/09 08:36:04;;;;;;;6.55;4.43;;;;;;;19.68;100.00;100244.22;5565145;32;33676;-55
2023/06/09 08:39:06;;;;;;;5.57;4.30;;;;;;;19.76;100.00;100247.94;5563962;32;33641;-55
2023/06/09 08:42:21;;;;;;;5.47;4.35;;;;;;;19.73;100.00;100243.19;5564762;32;33559;-55
2023/06/09 08:45:24;;;;;;;4.85;3.75;;;;;;;19.81;100.00;100246.91;5560698;32;32159;-56
2023/06/09 08:48:30;;;;;;;5.18;3.90;;;;;;;19.87;99.75;100249.06;5567194;32;33391;-55
2023/06/09 08:51:33;;;;;;;9.18;4.20;;;;;;;19.93;98.83;100252.28;5568540;31;33650;-56
2023/06/09 08:54:36;;;;;;;5.60;2.87;;;;;;;19.92;100.00;100259.66;5569546;32;34338;-55
2023/06/09 08:57:40;;;;;;;5.95;3.92;;;;;;;19.99;100.00;100269.19;5567506;32;33946;-55
2023/06/09 09:00:44;;;;;;;11.38;5.15;;;;;;;19.99;100.00;100259.06;5567260;32;33637;-55
2023/06/09 09:03:47;;;;;;;8.75;6.75;;;;;;;20.10;100.00;100271.06;5559253;32;34051;-55
2023/06/09 09:06:50;;;;;;;11.88;7.45;;;;;;;20.01;100.00;100269.62;5566374;32;33616;-55
2023/06/09 09:09:53;;;;;;;7.53;6.65;;;;;;;20.16;100.00;100258.78;5562611;32;34106;-55
2023/06/09 09:12:55;;;;;;;11.45;8.13;;;;;;;20.14;100.00;100260.28;5556208;32;33621;-56
2023/06/09 09:16:01;;;;;;;8.15;6.90;;;;;;;20.19;100.00;100260.00;5566255;32;33800;-57
2023/06/09 09:19:04;;;;;;;11.48;5.85;;;;;;;20.09;100.00;100260.50;5569179;32;33895;-56
2023/06/09 09:22:07;;;;;;;8.70;6.32;;;;;;;20.20;100.00;100264.34;5568685;32;33179;-57
2023/06/09 09:25:26;;;;;;;8.52;5.93;;;;;;;20.19;100.00;100265.44;5563932;32;33615;-55
2023/06/09 09:28:39;;;;;;;6.65;5.25;;;;;;;20.15;100.00;100261.84;5568166;32;33281;-55
2023/06/09 09:31:42;;;;;;;7.37;4.80;;;;;;;20.13;100.00;100259.50;5568293;32;33267;-55
2023/06/09 09:34:45;;;;;;;7.05;4.05;;;;;;;20.13;100.00;100262.22;5568883;32;34366;-55
2023/06/09 09:37:51;;;;;;;5.18;3.80;;;;;;;20.16;100.00;100266.97;5561530;32;33717;-55
2023/06/09 09:40:55;;;;;;;6.15;4.03;;;;;;;20.12;100.00;100263.31;5560336;32;33752;-56
2023/06/09 09:43:58;;;;;;;9.88;4.87;;;;;;;20.16;100.00;100266.97;5563635;32;34147;-55
2023/06/09 09:47:03;;;;;;;6.03;4.90;;;;;;;20.12;99.19;100263.31;5561758;32;33645;-55
2023/06/09 09:50:10;;;;;;;8.73;4.62;;;;;;;20.19;98.15;100260.78;5560113;32;34176;-56
2023/06/09 09:53:12;;;;;;;7.03;4.40;;;;;;;20.18;100.00;100261.94;5566879;32;33677;-55
2023/06/09 09:56:21;;;;;;;5.53;4.07;;;;;;;20.23;100.00;100258.19;5564681;32;33636;-56
2023/06/09 09:59:25;;;;;;;5.60;3.83;;;;;;;20.29;99.96;100253.28;5568161;32;34408;-55
2023/06/09 10:02:30;;;;;;;6.22;4.53;;;;;;;20.25;99.32;100252.38;5565075;32;34288;-56
2023/06/09 10:05:36;;;;;;;6.87;5.03;;;;;;;20.29;95.56;100245.88;5567224;32;34377;-55
2023/06/09 10:08:42;;;;;;;5.85;4.32;;;;;;;20.24;99.88;100240.72;5567159;32;33099;-56
2023/06/09 10:11:46;;;;;;;5.90;4.47;;;;;;;20.30;99.58;100233.09;5569125;32;33608;-55
2023/06/09 10:14:49;;;;;;;5.45;4.07;;;;;;;20.23;98.06;100230.16;5566261;32;34412;-55
2023/06/09 10:17:53;;;;;;;6.85;4.00;;;;;;;20.21;97.17;100230.53;5568813;32;33628;-55
2023/06/09 10:20:56;;;;;;;6.12;4.47;;;;;;;20.41;96.11;100232.22;5566163;32;33742;-56
2023/06/09 10:23:59;;;;;;;9.60;5.87;;;;;;;20.35;100.00;100225.44;5566619;32;34108;-56
2023/06/09 10:27:04;;;;;;;9.68;6.15;;;;;;;20.38;99.44;100235.62;5566331;32;34540;-55
2023/06/09 10:30:10;;;;;;;8.00;5.68;;;;;;;20.42;98.91;100225.62;5558152;32;34314;-55
2023/06/09 10:33:33;;;;;;;;;;;;;;;20.46;100.00;100222.19;5559102;32;33658;-56
2023/06/09 10:36:39;;;;;;;7.80;5.82;;;;;;;20.56;100.00;100225.25;5563210;32;34704;-56
2023/06/09 10:39:58;;;;;;;11.57;5.57;;;;;;;20.58;100.00;100222.94;5552081;32;33869;-56
2023/06/09 10:43:20;;;;;;;6.85;5.65;;;;;;;20.59;100.00;100221.78;5547921;32;34359;-55
2023/06/09 10:46:41;;;;;;;8.77;5.43;;;;;;;20.64;100.00;100223.47;5559313;32;34583;-57
2023/06/09 10:49:45;;;;;;;7.97;5.87;;;;;;;20.71;100.00;100217.41;5567166;32;33301;-57
2023/06/09 10:52:55;;;;;;;7.57;5.45;;;;;;;20.77;98.17;100210.56;5563795;32;33390;-56
2023/06/09 10:56:36;;;;;;;6.72;5.68;;;;;;;20.74;96.06;100214.00;5557118;31;33578;-56
2023/06/09 10:59:38;;;;;;;6.22;5.18;;;;;;;20.67;96.51;100209.16;5568123;32;34341;-57
2023/06/09 11:02:52;;;;;;;8.88;5.82;;;;;;;20.67;100.00;100208.38;5563453;32;33647;-56
2023/06/09 11:06:02;;;;;;;7.12;5.70;;;;;;;20.59;99.89;100205.44;5561050;32;34472;-56
2023/06/09 11:09:09;;;;;;;7.85;6.10;;;;;;;20.66;100.00;100193.94;5559933;32;34283;-55
2023/06/09 11:12:27;;;;;;;7.37;5.87;;;;;;;20.71;98.51;100192.91;5558241;32;33785;-56
2023/06/09 11:15:54;;;;;;;6.40;5.60;;;;;;;20.73;97.53;100198.75;5554830;32;33587;-57
2023/06/09 11:19:19;;;;;;;6.22;5.60;;;;;;;20.73;97.92;100187.88;5560271;32;33639;-57
2023/06/09 11:22:22;;;;;;;6.35;5.62;;;;;;;20.76;98.56;100192.63;5558119;32;34416;-56
2023/06/09 11:25:33;;;;;;;6.07;5.18;;;;;;;20.81;100.00;100193.16;5555536;32;33127;-56
2023/06/09 11:28:41;;;;;;;7.82;4.87;;;;;;;20.85;91.46;100185.06;5558923;32;33703;-56
2023/06/09 11:31:48;;;;;;;9.80;5.28;;;;;;;20.86;91.45;100190.16;5556229;32;33823;-56
2023/06/09 11:34:55;;;;;;;6.00;5.37;;;;;;;20.81;91.75;100179.53;5548734;32;33515;-56
2023/06/09 11:38:02;;;;;;;6.18;5.47;;;;;;;20.92;92.01;100185.22;5563303;32;33677;-57
2023/06/09 11:41:12;;;;;;;5.78;5.10;;;;;;;20.91;93.59;100186.37;5568630;32;33641;-56
2023/06/09 11:44:16;;;;;;;7.43;5.37;;;;;;;20.97;94.90;100187.69;5564720;32;33627;-56
2023/06/09 11:47:25;;;;;;;5.40;4.65;;;;;;;20.98;94.61;100193.91;5554559;32;33746;-56
2023/06/09 11:50:45;;;;;;;6.07;4.93;;;;;;;21.00;89.18;100178.78;5560934;32;33169;-57
2023/06/09 11:53:48;;;;;;;8.15;5.28;;;;;;;21.10;91.72;100182.91;5561710;32;33802;-55
2023/06/09 11:56:51;;;;;;;6.05;4.97;;;;;;;21.04;90.15;100187.84;5561184;32;34432;-55
2023/06/09 11:59:53;;;;;;;6.53;5.50;;;;;;;21.08;88.96;100193.34;5564707;32;33749;-55
2023/06/09 12:02:56;;;;;;;6.70;5.57;;;;;;;21.15;89.53;100192.72;5558325;32;34449;-56
2023/06/09 12:05:59;;;;;;;7.80;6.07;;;;;;;21.18;92.03;100186.56;5555336;32;33731;-55
2023/06/09 12:09:22;;;;;;;6.95;6.05;;;;;;;21.13;89.73;100187.66;5554359;32;34345;-55
